createdAt,value
2022-12-25T00:03:28.913Z,6.70
2022-12-25T00:07:35.699Z,6.80
2022-12-25T00:11:42.461Z,6.90
2022-12-25T00:15:49.173Z,6.90
2022-12-25T00:19:56.051Z,6.80
2022-12-25T00:24:04.063Z,6.80
2022-12-25T00:28:10.779Z,6.70
2022-12-25T00:32:17.471Z,6.70
2022-12-25T00:36:24.490Z,6.70
2022-12-25T00:40:31.192Z,6.70
2022-12-25T00:44:37.894Z,6.80
2022-12-25T00:48:47.496Z,6.80
2022-12-25T00:52:54.148Z,7.00
2022-12-25T00:57:00.815Z,7.10
2022-12-25T01:01:09.748Z,7.20
2022-12-25T01:05:16.537Z,7.20
2022-12-25T01:09:44.872Z,7.20
2022-12-25T01:13:51.668Z,7.30
2022-12-25T01:17:58.804Z,7.50
2022-12-25T01:22:07.319Z,7.70
2022-12-25T01:26:15.947Z,7.80
2022-12-25T01:30:22.692Z,8.00
2022-12-25T01:34:31.454Z,8.10
2022-12-25T01:38:38.200Z,8.20
2022-12-25T01:42:45.243Z,8.40
2022-12-25T01:46:52.426Z,8.40
2022-12-25T01:51:03.487Z,8.50
2022-12-25T01:55:11.804Z,8.50
2022-12-25T01:59:21.868Z,8.50
2022-12-25T02:03:28.823Z,8.60
2022-12-25T02:07:38.266Z,8.70
2022-12-25T02:11:58.934Z,8.70
2022-12-25T02:16:16.237Z,8.70
2022-12-25T02:20:51.593Z,8.70
2022-12-25T02:25:09.413Z,8.70
2022-12-25T02:29:42.773Z,8.70
2022-12-25T02:34:26.035Z,8.80
2022-12-25T02:39:10.584Z,8.80
2022-12-25T02:43:57.383Z,8.80
2022-12-25T02:48:27.308Z,8.80
2022-12-25T02:52:53.127Z,8.70
2022-12-25T02:57:23.394Z,8.70
2022-12-25T03:01:52.169Z,8.60
2022-12-25T03:06:22.146Z,8.50
2022-12-25T03:10:49.562Z,8.50
2022-12-25T03:15:15.689Z,8.50
2022-12-25T03:19:44.763Z,8.50
2022-12-25T03:24:16.831Z,8.50
2022-12-25T03:28:24.413Z,8.70
2022-12-25T03:32:48.570Z,8.60
2022-12-25T03:37:45.331Z,8.70
2022-12-25T03:42:17.402Z,8.80
2022-12-25T03:46:51.125Z,8.90
2022-12-25T03:51:23.399Z,8.90
2022-12-25T03:55:50.310Z,8.90
2022-12-25T04:00:15.406Z,10.60
2022-12-25T04:04:40.887Z,10.50
2022-12-25T04:09:05.965Z,9.70
2022-12-25T04:13:31.232Z,8.90
2022-12-25T04:17:56.661Z,8.90
2022-12-25T04:22:22.107Z,8.80
2022-12-25T04:26:47.187Z,8.70
2022-12-25T04:31:12.669Z,8.60
2022-12-25T04:35:37.881Z,8.60
2022-12-25T04:39:44.729Z,8.50
2022-12-25T04:43:51.409Z,8.50
2022-12-25T04:48:00.546Z,8.60
2022-12-25T04:52:07.280Z,8.50
2022-12-25T04:56:15.098Z,8.50
2022-12-25T05:00:24.582Z,8.60
2022-12-25T05:04:31.340Z,8.60
2022-12-25T05:08:38.157Z,8.80
2022-12-25T05:12:45.171Z,8.90
2022-12-25T05:16:51.917Z,8.90
2022-12-25T05:20:58.591Z,8.90
2022-12-25T05:25:05.605Z,9.00
2022-12-25T05:29:12.338Z,9.00
2022-12-25T05:33:19.033Z,9.00
2022-12-25T05:37:26.238Z,9.00
2022-12-25T05:41:34.696Z,10.70
2022-12-25T05:45:41.759Z,8.90
2022-12-25T05:49:48.431Z,8.80
2022-12-25T05:53:55.100Z,8.80
2022-12-25T05:58:01.911Z,8.70
2022-12-25T06:02:08.775Z,8.70
2022-12-25T06:06:15.883Z,8.70
2022-12-25T06:10:23.236Z,9.70
2022-12-25T06:14:30.064Z,8.70
2022-12-25T06:18:38.844Z,8.60
2022-12-25T06:22:45.575Z,8.50
2022-12-25T06:26:52.347Z,8.50
2022-12-25T06:30:59.072Z,8.40
2022-12-25T06:35:06.266Z,8.40
2022-12-25T06:39:13.011Z,8.30
2022-12-25T06:43:19.665Z,8.20
2022-12-25T06:47:26.331Z,8.10
2022-12-25T06:51:33.518Z,9.60
2022-12-25T06:55:40.180Z,8.10
2022-12-25T06:59:52.938Z,8.10
2022-12-25T07:04:04.945Z,8.10
2022-12-25T07:08:11.655Z,8.10
2022-12-25T07:12:21.100Z,8.00
2022-12-25T07:16:28.079Z,9.40
2022-12-25T07:20:36.320Z,8.20
2022-12-25T07:24:43.065Z,8.20
2022-12-25T07:28:49.777Z,8.20
2022-12-25T07:32:57.323Z,8.20
2022-12-25T07:37:04.080Z,8.30
2022-12-25T07:41:12.844Z,8.40
2022-12-25T07:45:19.751Z,8.90
2022-12-25T07:49:26.426Z,8.50
2022-12-25T07:53:33.983Z,8.50
2022-12-25T07:57:40.671Z,8.60
2022-12-25T08:01:49.947Z,8.60
2022-12-25T08:06:03.282Z,8.60
2022-12-25T08:10:10.350Z,8.70
2022-12-25T08:14:17.072Z,8.80
2022-12-25T08:18:29.504Z,8.80
2022-12-25T08:22:36.803Z,8.90
2022-12-25T08:26:43.601Z,9.00
2022-12-25T08:30:50.366Z,9.00
2022-12-25T08:34:57.108Z,9.00
2022-12-25T08:39:05.304Z,9.10
2022-12-25T08:43:11.986Z,9.40
2022-12-25T08:47:18.716Z,9.20
2022-12-25T08:51:26.522Z,9.20
2022-12-25T08:55:33.226Z,10.20
2022-12-25T08:59:39.914Z,9.20
2022-12-25T09:03:46.670Z,9.20
2022-12-25T09:07:53.358Z,9.30
2022-12-25T09:12:00.288Z,9.30
2022-12-25T09:16:12.570Z,9.30
2022-12-25T09:20:19.366Z,9.40
2022-12-25T09:24:26.070Z,9.60
2022-12-25T09:28:32.982Z,9.40
2022-12-25T09:32:40.360Z,9.50
2022-12-25T09:36:47.159Z,9.50
2022-12-25T09:41:13.236Z,9.50
2022-12-25T09:45:32.900Z,9.50
2022-12-25T09:49:47.333Z,9.50
2022-12-25T09:54:02.310Z,9.60
2022-12-25T09:58:12.535Z,9.60
2022-12-25T10:02:54.512Z,9.60
2022-12-25T10:07:23.513Z,9.60
2022-12-25T10:12:11.059Z,9.60
2022-12-25T10:16:43.435Z,9.50
2022-12-25T10:20:59.372Z,9.50
2022-12-25T10:25:14.692Z,9.50
2022-12-25T10:29:21.527Z,9.50
2022-12-25T10:33:28.549Z,9.50
2022-12-25T10:37:35.245Z,9.40
2022-12-25T10:41:41.890Z,9.50
2022-12-25T10:45:49.887Z,9.50
2022-12-25T10:49:57.408Z,9.60
2022-12-25T10:54:17.553Z,9.50
2022-12-25T10:58:24.416Z,9.60
2022-12-25T11:02:39.586Z,9.60
2022-12-25T11:06:56.969Z,9.60
2022-12-25T11:11:08.516Z,9.70
2022-12-25T11:15:34.127Z,9.70
2022-12-25T11:19:51.184Z,9.70
2022-12-25T11:24:04.480Z,9.70
2022-12-25T11:28:13.407Z,9.70
2022-12-25T11:32:44.841Z,9.70
2022-12-25T11:36:52.526Z,9.70
2022-12-25T11:41:02.666Z,9.70
2022-12-25T11:45:24.436Z,9.70
2022-12-25T11:49:37.048Z,9.70
2022-12-25T11:53:55.785Z,9.70
2022-12-25T11:58:13.962Z,9.70
2022-12-25T12:02:39.211Z,9.70
2022-12-25T12:07:02.008Z,9.70
2022-12-25T12:11:21.670Z,9.80
2022-12-25T12:15:30.449Z,9.80
2022-12-25T12:19:37.184Z,9.80
2022-12-25T12:23:57.250Z,9.90
2022-12-25T12:28:05.870Z,10.00
2022-12-25T12:32:34.966Z,10.00
2022-12-25T12:36:41.652Z,10.00
2022-12-25T12:41:01.622Z,10.00
2022-12-25T12:45:15.886Z,10.10
2022-12-25T12:49:24.462Z,10.10
2022-12-25T12:53:32.595Z,10.20
2022-12-25T12:57:40.235Z,10.30
2022-12-25T13:02:20.332Z,10.30
2022-12-25T13:06:32.425Z,10.40
2022-12-25T13:10:50.180Z,10.40
2022-12-25T13:14:57.075Z,10.40
2022-12-25T13:19:12.855Z,10.40
2022-12-25T13:23:32.647Z,10.40
2022-12-25T13:27:39.336Z,10.40
2022-12-25T13:31:46.146Z,10.40
2022-12-25T13:35:53.557Z,10.50
2022-12-25T13:40:03.635Z,10.50
2022-12-25T13:44:21.185Z,10.50
2022-12-25T13:48:27.885Z,10.40
2022-12-25T13:52:36.981Z,10.40
2022-12-25T13:56:50.678Z,10.40
2022-12-25T14:00:59.614Z,11.70
2022-12-25T14:05:31.321Z,10.50
2022-12-25T14:09:40.490Z,10.50
2022-12-25T14:13:49.465Z,10.50
2022-12-25T14:17:56.326Z,10.50
2022-12-25T14:22:07.500Z,10.50
2022-12-25T14:26:23.366Z,10.40
2022-12-25T14:30:30.256Z,10.40
2022-12-25T14:34:37.295Z,10.40
2022-12-25T14:38:44.372Z,10.40
2022-12-25T14:42:59.435Z,10.30
2022-12-25T14:47:18.930Z,10.30
2022-12-25T14:51:26.076Z,10.30
2022-12-25T14:55:32.875Z,10.30
2022-12-25T14:59:39.569Z,11.90
2022-12-25T15:03:48.862Z,10.20
2022-12-25T15:08:13.755Z,10.20
2022-12-25T15:12:20.582Z,10.20
2022-12-25T15:16:34.737Z,10.20
2022-12-25T15:20:41.553Z,10.20
2022-12-25T15:24:48.316Z,10.20
2022-12-25T15:28:55.159Z,10.20
2022-12-25T15:33:01.856Z,10.20
2022-12-25T15:37:08.519Z,10.10
2022-12-25T15:41:37.686Z,10.10
2022-12-25T15:45:45.459Z,10.00
2022-12-25T15:49:52.127Z,10.10
2022-12-25T15:53:59.622Z,10.00
2022-12-25T15:58:06.303Z,10.00
2022-12-25T16:02:19.778Z,10.00
2022-12-25T16:06:26.549Z,10.10
2022-12-25T16:10:38.425Z,10.00
2022-12-25T16:14:45.682Z,10.00
2022-12-25T16:18:52.380Z,9.80
2022-12-25T16:22:59.072Z,9.70
2022-12-25T16:27:05.822Z,9.70
2022-12-25T16:31:12.556Z,9.70
2022-12-25T16:35:19.397Z,9.50
2022-12-25T16:39:26.083Z,9.50
2022-12-25T16:43:32.743Z,9.50
2022-12-25T16:47:39.552Z,9.50
2022-12-25T16:51:46.296Z,9.50
2022-12-25T16:55:52.942Z,9.50
2022-12-25T17:00:00.006Z,9.60
2022-12-25T17:04:06.747Z,9.60
2022-12-25T17:08:13.571Z,9.60
2022-12-25T17:12:20.246Z,9.70
2022-12-25T17:16:29.148Z,9.70
2022-12-25T17:20:38.793Z,9.80
2022-12-25T17:24:45.448Z,9.80
2022-12-25T17:28:52.284Z,9.80
2022-12-25T17:32:59.081Z,9.80
2022-12-25T17:37:06.040Z,9.80
2022-12-25T17:41:14.732Z,9.80
2022-12-25T17:45:21.629Z,9.60
2022-12-25T17:49:28.385Z,9.60
2022-12-25T17:53:36.855Z,9.60
2022-12-25T17:57:43.525Z,9.60
2022-12-25T18:01:50.306Z,9.70
2022-12-25T18:06:00.204Z,9.60
2022-12-25T18:10:07.468Z,9.60
2022-12-25T18:14:16.026Z,9.60
2022-12-25T18:18:22.817Z,9.60
2022-12-25T18:22:29.524Z,9.70
2022-12-25T18:26:37.008Z,9.60
2022-12-25T18:30:45.477Z,9.70
2022-12-25T18:34:55.506Z,9.70
2022-12-25T18:39:02.189Z,9.70
2022-12-25T18:43:09.266Z,9.70
2022-12-25T18:47:15.932Z,9.70
2022-12-25T18:51:23.278Z,9.70
2022-12-25T18:55:30.029Z,9.70
2022-12-25T18:59:36.728Z,9.70
2022-12-25T19:03:44.011Z,9.70
2022-12-25T19:07:50.767Z,9.70
2022-12-25T19:11:57.478Z,9.70
2022-12-25T19:16:05.017Z,9.60
2022-12-25T19:20:12.181Z,9.50
2022-12-25T19:24:19.347Z,9.50
2022-12-25T19:28:26.076Z,10.30
2022-12-25T19:32:32.750Z,9.50
2022-12-25T19:36:39.688Z,9.40
2022-12-25T19:41:00.139Z,9.40
2022-12-25T19:45:07.593Z,9.40
2022-12-25T19:49:14.593Z,9.40
2022-12-25T19:53:23.717Z,9.40
2022-12-25T19:57:30.444Z,9.40
2022-12-25T20:01:38.796Z,9.30
2022-12-25T20:05:50.931Z,9.40
2022-12-25T20:09:57.633Z,9.40
2022-12-25T20:14:05.380Z,9.30
2022-12-25T20:18:12.184Z,9.20
2022-12-25T20:22:18.865Z,9.20
2022-12-25T20:26:29.561Z,9.20
2022-12-25T20:30:39.968Z,9.20
2022-12-25T20:34:46.666Z,9.30
2022-12-25T20:38:53.482Z,9.30
2022-12-25T20:43:00.226Z,9.40
2022-12-25T20:47:06.957Z,9.30
2022-12-25T20:51:18.028Z,9.30
2022-12-25T20:55:24.761Z,9.30
2022-12-25T20:59:37.138Z,9.30
2022-12-25T21:03:45.079Z,9.30
2022-12-25T21:07:51.847Z,9.40
2022-12-25T21:11:58.551Z,9.40
2022-12-25T21:16:06.893Z,9.40
2022-12-25T21:20:13.575Z,9.40
2022-12-25T21:24:20.781Z,9.30
2022-12-25T21:28:29.528Z,9.40
2022-12-25T21:32:54.727Z,9.40
2022-12-25T21:37:01.418Z,9.40
2022-12-25T21:41:10.755Z,9.40
2022-12-25T21:45:17.394Z,9.40
2022-12-25T21:49:42.728Z,9.50
2022-12-25T21:53:49.706Z,9.50
2022-12-25T21:57:56.374Z,9.50
2022-12-25T22:02:11.062Z,9.50
2022-12-25T22:06:36.971Z,9.50
2022-12-25T22:10:43.701Z,9.60
2022-12-25T22:14:54.332Z,9.50
2022-12-25T22:19:20.826Z,9.50
2022-12-25T22:23:27.505Z,9.60
2022-12-25T22:27:37.779Z,9.60
2022-12-25T22:31:46.940Z,9.70
2022-12-25T22:36:01.988Z,9.70
2022-12-25T22:40:11.071Z,9.70
2022-12-25T22:44:18.421Z,9.80
2022-12-25T22:48:25.367Z,9.80
2022-12-25T22:52:32.056Z,9.80
2022-12-25T22:56:40.029Z,9.90
2022-12-25T23:00:46.804Z,9.90
2022-12-25T23:04:53.572Z,9.90
2022-12-25T23:09:01.875Z,9.90
2022-12-25T23:13:27.731Z,10.70
2022-12-25T23:17:53.313Z,9.90
2022-12-25T23:22:18.982Z,9.90
2022-12-25T23:26:25.655Z,9.80
2022-12-25T23:30:33.245Z,9.80
2022-12-25T23:34:42.155Z,9.70
2022-12-25T23:38:48.813Z,9.70
2022-12-25T23:42:55.484Z,9.70
2022-12-25T23:47:02.753Z,9.70
2022-12-25T23:51:09.760Z,9.80
2022-12-25T23:55:19.249Z,9.80
2022-12-25T23:59:30.599Z,9.80
